createdAt,value
2023-02-26T00:00:00.184Z,83
2023-02-26T00:04:00.188Z,83
2023-02-26T00:08:00.170Z,83
2023-02-26T00:12:00.206Z,83
2023-02-26T00:16:00.192Z,83
2023-02-26T00:20:00.205Z,83
2023-02-26T00:24:00.178Z,83
2023-02-26T00:28:00.191Z,83
2023-02-26T00:32:00.373Z,83
2023-02-26T00:36:00.209Z,83
2023-02-26T00:40:00.205Z,83
2023-02-26T00:44:00.199Z,83
2023-02-26T00:48:00.242Z,83
2023-02-26T00:52:00.189Z,83
2023-02-26T00:56:00.186Z,83
2023-02-26T01:00:00.213Z,83
2023-02-26T01:04:00.318Z,83
2023-02-26T01:08:00.201Z,83
2023-02-26T01:12:00.187Z,83
2023-02-26T01:16:00.324Z,83
2023-02-26T01:20:00.192Z,83
2023-02-26T01:24:00.205Z,83
2023-02-26T01:28:00.189Z,83
2023-02-26T01:32:00.430Z,83
2023-02-26T01:36:00.175Z,83
2023-02-26T01:40:00.191Z,83
2023-02-26T01:44:00.212Z,83
2023-02-26T01:48:00.191Z,83
2023-02-26T01:52:00.197Z,83
2023-02-26T01:56:00.230Z,83
2023-02-26T02:00:00.202Z,82
2023-02-26T02:04:00.225Z,82
2023-02-26T02:08:00.219Z,82
2023-02-26T02:12:00.184Z,82
2023-02-26T02:16:00.276Z,82
2023-02-26T02:20:00.199Z,82
2023-02-26T02:24:00.226Z,82
2023-02-26T02:28:00.190Z,82
2023-02-26T02:32:00.365Z,82
2023-02-26T02:36:00.191Z,81
2023-02-26T02:40:00.470Z,81
2023-02-26T02:44:00.185Z,81
2023-02-26T02:48:00.208Z,81
2023-02-26T02:52:00.200Z,81
2023-02-26T02:56:00.215Z,81
2023-02-26T03:00:00.206Z,81
2023-02-26T03:04:00.209Z,81
2023-02-26T03:08:00.223Z,80
2023-02-26T03:12:00.205Z,80
2023-02-26T03:16:00.658Z,80
2023-02-26T03:20:00.211Z,80
2023-02-26T03:24:00.186Z,80
2023-02-26T03:28:00.192Z,80
2023-02-26T03:32:00.404Z,80
2023-02-26T03:36:00.200Z,80
2023-02-26T03:40:00.206Z,79
2023-02-26T03:44:00.183Z,79
2023-02-26T03:48:00.207Z,79
2023-02-26T03:52:00.209Z,79
2023-02-26T03:56:00.192Z,79
2023-02-26T04:00:00.233Z,79
2023-02-26T04:04:00.294Z,79
2023-02-26T04:08:00.215Z,79
2023-02-26T04:12:00.228Z,79
2023-02-26T04:16:00.232Z,79
2023-02-26T04:20:00.232Z,79
2023-02-26T04:24:00.228Z,79
2023-02-26T04:28:00.214Z,79
2023-02-26T04:32:00.345Z,79
2023-02-26T04:36:00.219Z,79
2023-02-26T04:40:00.214Z,79
2023-02-26T04:44:00.199Z,79
2023-02-26T04:48:00.195Z,79
2023-02-26T04:52:00.246Z,79
2023-02-26T04:56:00.190Z,79
2023-02-26T05:00:00.189Z,79
2023-02-26T05:04:00.212Z,79
2023-02-26T05:08:00.202Z,79
2023-02-26T05:12:00.217Z,79
2023-02-26T05:16:00.230Z,78
2023-02-26T05:20:00.201Z,78
2023-02-26T05:24:00.193Z,78
2023-02-26T05:28:00.192Z,78
2023-02-26T05:32:00.255Z,78
2023-02-26T05:36:00.185Z,78
2023-02-26T05:40:00.255Z,78
2023-02-26T05:44:00.202Z,78
2023-02-26T05:48:00.206Z,78
2023-02-26T05:52:00.202Z,78
2023-02-26T05:56:00.215Z,78
2023-02-26T06:00:00.239Z,78
2023-02-26T06:04:00.180Z,78
2023-02-26T06:08:00.207Z,78
2023-02-26T06:12:00.206Z,78
2023-02-26T06:16:00.269Z,78
2023-02-26T06:20:00.215Z,78
2023-02-26T06:24:00.262Z,76
2023-02-26T06:28:00.199Z,76
2023-02-26T06:32:00.347Z,76
2023-02-26T06:36:00.236Z,76
2023-02-26T06:40:00.207Z,76
2023-02-26T06:44:00.203Z,76
2023-02-26T06:48:00.224Z,76
2023-02-26T06:52:00.214Z,76
2023-02-26T06:56:00.198Z,76
2023-02-26T07:00:00.309Z,76
2023-02-26T07:04:00.208Z,76
2023-02-26T07:08:00.205Z,76
2023-02-26T07:12:00.218Z,76
2023-02-26T07:16:00.216Z,76
2023-02-26T07:20:00.182Z,76
2023-02-26T07:24:00.219Z,76
2023-02-26T07:28:00.278Z,76
2023-02-26T07:32:00.295Z,76
2023-02-26T07:36:00.212Z,76
2023-02-26T07:40:00.240Z,76
2023-02-26T07:44:00.214Z,76
2023-02-26T07:48:00.197Z,72
2023-02-26T07:52:00.197Z,72
2023-02-26T07:56:00.199Z,72
2023-02-26T08:00:00.216Z,66
2023-02-26T08:04:00.272Z,66
2023-02-26T08:08:00.186Z,66
2023-02-26T08:12:00.187Z,66
2023-02-26T08:16:00.250Z,66
2023-02-26T08:20:00.212Z,66
2023-02-26T08:24:00.206Z,66
2023-02-26T08:28:00.189Z,66
2023-02-26T08:32:00.303Z,66
2023-02-26T08:36:00.180Z,66
2023-02-26T08:40:00.231Z,66
2023-02-26T08:44:00.200Z,66
2023-02-26T08:48:00.218Z,66
2023-02-26T08:52:00.220Z,66
2023-02-26T08:56:00.193Z,56
2023-02-26T09:00:00.209Z,56
2023-02-26T09:04:00.222Z,55
2023-02-26T09:08:00.198Z,55
2023-02-26T09:12:00.223Z,57
2023-02-26T09:16:00.284Z,58
2023-02-26T09:20:00.229Z,58
2023-02-26T09:24:00.205Z,58
2023-02-26T09:28:00.286Z,58
2023-02-26T09:32:00.439Z,57
2023-02-26T09:36:00.195Z,58
2023-02-26T09:40:00.243Z,58
2023-02-26T09:44:00.203Z,58
2023-02-26T09:48:00.192Z,58
2023-02-26T09:52:00.196Z,58
2023-02-26T09:56:00.209Z,58
2023-02-26T10:00:00.219Z,58
2023-02-26T10:04:00.279Z,58
2023-02-26T10:08:00.227Z,54
2023-02-26T10:12:00.226Z,55
2023-02-26T10:16:00.212Z,55
2023-02-26T10:20:00.216Z,55
2023-02-26T10:24:00.215Z,55
2023-02-26T10:28:00.209Z,51
2023-02-26T10:32:00.350Z,51
2023-02-26T10:36:00.202Z,51
2023-02-26T10:40:00.194Z,51
2023-02-26T10:44:00.209Z,51
2023-02-26T10:48:00.167Z,50
2023-02-26T10:52:00.228Z,50
2023-02-26T10:56:00.204Z,47
2023-02-26T11:00:00.216Z,47
2023-02-26T11:04:00.220Z,47
2023-02-26T11:08:00.223Z,48
2023-02-26T11:12:00.234Z,48
2023-02-26T11:16:00.264Z,50
2023-02-26T11:20:00.196Z,51
2023-02-26T11:24:00.209Z,51
2023-02-26T11:28:00.231Z,51
2023-02-26T11:32:00.296Z,49
2023-02-26T11:36:00.205Z,47
2023-02-26T11:40:00.219Z,49
2023-02-26T11:44:00.215Z,49
2023-02-26T11:48:00.238Z,48
2023-02-26T11:52:00.234Z,48
2023-02-26T11:56:00.222Z,48
2023-02-26T12:00:00.281Z,48
2023-02-26T12:04:00.225Z,48
2023-02-26T12:08:00.214Z,48
2023-02-26T12:12:00.213Z,48
2023-02-26T12:16:00.382Z,48
2023-02-26T12:20:00.231Z,48
2023-02-26T12:24:00.211Z,45
2023-02-26T12:28:00.188Z,45
2023-02-26T12:32:00.314Z,47
2023-02-26T12:36:00.217Z,48
2023-02-26T12:40:00.259Z,48
2023-02-26T12:44:00.223Z,46
2023-02-26T12:48:00.194Z,46
2023-02-26T12:52:00.219Z,46
2023-02-26T12:56:00.230Z,46
2023-02-26T13:00:00.244Z,46
2023-02-26T13:04:00.278Z,46
2023-02-26T13:08:00.206Z,46
2023-02-26T13:12:00.212Z,46
2023-02-26T13:16:00.285Z,46
2023-02-26T13:20:00.208Z,46
2023-02-26T13:24:00.196Z,46
2023-02-26T13:28:00.204Z,46
2023-02-26T13:32:00.370Z,46
2023-02-26T13:36:00.214Z,46
2023-02-26T13:40:00.198Z,46
2023-02-26T13:44:00.208Z,46
2023-02-26T13:48:00.300Z,46
2023-02-26T13:52:00.215Z,46
2023-02-26T13:56:00.220Z,46
2023-02-26T14:00:00.198Z,46
2023-02-26T14:04:00.310Z,46
2023-02-26T14:08:00.211Z,46
2023-02-26T14:12:01.255Z,46
2023-02-26T14:16:00.201Z,42
2023-02-26T14:20:00.213Z,43
2023-02-26T14:24:00.197Z,43
2023-02-26T14:28:00.218Z,44
2023-02-26T14:32:00.349Z,45
2023-02-26T14:36:00.204Z,46
2023-02-26T14:40:00.210Z,46
2023-02-26T14:44:00.208Z,47
2023-02-26T14:48:00.215Z,47
2023-02-26T14:52:00.210Z,47
2023-02-26T14:56:00.232Z,47
2023-02-26T15:00:00.223Z,48
2023-02-26T15:04:00.232Z,48
2023-02-26T15:08:00.195Z,48
2023-02-26T15:12:01.261Z,48
2023-02-26T15:16:00.262Z,48
2023-02-26T15:20:00.231Z,48
2023-02-26T15:24:00.215Z,49
2023-02-26T15:28:00.195Z,49
2023-02-26T15:32:00.414Z,49
2023-02-26T15:36:00.234Z,49
2023-02-26T15:40:00.303Z,49
2023-02-26T15:44:00.217Z,49
2023-02-26T15:48:00.229Z,48
2023-02-26T15:52:00.218Z,47
2023-02-26T15:56:00.203Z,48
2023-02-26T16:00:00.306Z,48
2023-02-26T16:04:00.233Z,48
2023-02-26T16:08:00.204Z,48
2023-02-26T16:12:00.241Z,49
2023-02-26T16:16:00.309Z,49
2023-02-26T16:20:00.214Z,49
2023-02-26T16:24:00.258Z,49
2023-02-26T16:28:00.191Z,50
2023-02-26T16:32:00.383Z,51
2023-02-26T16:36:00.201Z,51
2023-02-26T16:40:00.183Z,52
2023-02-26T16:44:00.201Z,52
2023-02-26T16:48:00.209Z,52
2023-02-26T16:52:00.212Z,53
2023-02-26T16:56:00.258Z,53
2023-02-26T17:00:00.239Z,53
2023-02-26T17:04:00.233Z,53
2023-02-26T17:08:00.240Z,54
2023-02-26T17:12:00.214Z,54
2023-02-26T17:16:00.218Z,55
2023-02-26T17:20:00.216Z,55
2023-02-26T17:24:00.182Z,55
2023-02-26T17:28:00.195Z,56
2023-02-26T17:32:00.353Z,56
2023-02-26T17:36:00.211Z,56
2023-02-26T17:40:00.226Z,56
2023-02-26T17:44:00.216Z,56
2023-02-26T17:48:00.205Z,56
2023-02-26T17:52:00.214Z,56
2023-02-26T17:56:00.207Z,57
2023-02-26T18:00:00.254Z,57
2023-02-26T18:04:00.435Z,57
2023-02-26T18:08:00.190Z,57
2023-02-26T18:12:00.224Z,57
2023-02-26T18:16:00.206Z,57
2023-02-26T18:20:00.208Z,57
2023-02-26T18:24:00.193Z,57
2023-02-26T18:28:00.335Z,57
2023-02-26T18:32:00.583Z,57
2023-02-26T18:36:00.208Z,57
2023-02-26T18:40:00.260Z,58
2023-02-26T18:44:00.202Z,58
2023-02-26T18:48:00.213Z,59
2023-02-26T18:52:00.201Z,58
2023-02-26T18:56:00.241Z,59
2023-02-26T19:00:00.211Z,59
2023-02-26T19:04:00.197Z,59
2023-02-26T19:08:00.230Z,59
2023-02-26T19:12:00.192Z,59
2023-02-26T19:16:00.332Z,59
2023-02-26T19:20:00.233Z,59
2023-02-26T19:24:00.217Z,59
2023-02-26T19:28:00.229Z,60
2023-02-26T19:32:00.382Z,60
2023-02-26T19:36:00.224Z,60
2023-02-26T19:40:00.211Z,61
2023-02-26T19:44:00.199Z,62
2023-02-26T19:48:00.217Z,62
2023-02-26T19:52:00.221Z,62
2023-02-26T19:56:00.174Z,62
2023-02-26T20:00:00.242Z,62
2023-02-26T20:04:00.221Z,62
2023-02-26T20:08:00.207Z,63
2023-02-26T20:12:00.181Z,63
2023-02-26T20:16:00.325Z,64
2023-02-26T20:20:00.200Z,65
2023-02-26T20:24:00.203Z,64
2023-02-26T20:28:00.230Z,64
2023-02-26T20:32:00.445Z,64
2023-02-26T20:36:00.210Z,65
2023-02-26T20:40:00.217Z,65
2023-02-26T20:44:00.215Z,65
2023-02-26T20:48:00.226Z,65
2023-02-26T20:52:00.218Z,66
2023-02-26T20:56:00.248Z,66
2023-02-26T21:00:00.216Z,66
2023-02-26T21:04:00.207Z,66
2023-02-26T21:08:00.175Z,66
2023-02-26T21:12:00.217Z,67
2023-02-26T21:16:00.300Z,67
2023-02-26T21:20:00.210Z,67
2023-02-26T21:24:00.220Z,68
2023-02-26T21:28:00.218Z,68
2023-02-26T21:32:00.366Z,68
2023-02-26T21:36:00.253Z,69
2023-02-26T21:40:00.208Z,70
2023-02-26T21:44:00.227Z,70
2023-02-26T21:48:00.194Z,70
2023-02-26T21:52:00.211Z,70
2023-02-26T21:56:00.225Z,70
2023-02-26T22:00:00.247Z,70
2023-02-26T22:04:00.220Z,70
2023-02-26T22:08:00.185Z,70
2023-02-26T22:12:00.232Z,70
2023-02-26T22:16:00.193Z,70
2023-02-26T22:20:00.242Z,70
2023-02-26T22:24:00.206Z,70
2023-02-26T22:28:00.221Z,70
2023-02-26T22:32:00.374Z,70
2023-02-26T22:36:00.222Z,70
2023-02-26T22:40:00.242Z,70
2023-02-26T22:44:00.237Z,70
2023-02-26T22:48:00.210Z,70
2023-02-26T22:52:00.240Z,70
2023-02-26T22:56:00.221Z,70
2023-02-26T23:00:00.297Z,70
2023-02-26T23:04:00.335Z,70
2023-02-26T23:08:00.219Z,70
2023-02-26T23:12:00.233Z,70
2023-02-26T23:16:00.265Z,70
2023-02-26T23:20:00.228Z,70
2023-02-26T23:24:00.244Z,70
2023-02-26T23:28:00.517Z,69
2023-02-26T23:32:00.326Z,69
2023-02-26T23:36:00.233Z,69
2023-02-26T23:40:00.202Z,69
2023-02-26T23:44:00.228Z,69
2023-02-26T23:48:00.218Z,69
2023-02-26T23:52:00.229Z,69
2023-02-26T23:56:00.198Z,69
